sensor_id;sensor_type;location;lat;lon;timestamp;pressure;altitude;pressure_sealevel;temperature;humidity
27864;BME280;15980;51.092;13.916;2023-04-24T00:02:00;97471.16;;;9.62;94.81
27864;BME280;15980;51.092;13.916;2023-04-24T00:12:01;97458.03;;;9.71;94.40
27864;BME280;15980;51.092;13.916;2023-04-24T00:22:02;97425.63;;;9.99;97.67
27864;BME280;15980;51.092;13.916;2023-04-24T00:32:02;97423.06;;;10.63;100.00
27864;BME280;15980;51.092;13.916;2023-04-24T00:42:02;97447.88;;;11.00;98.46
27864;BME280;15980;51.092;13.916;2023-04-24T00:52:03;97450.41;;;11.16;97.02
27864;BME280;15980;51.092;13.916;2023-04-24T01:02:03;97446.44;;;11.13;96.89
27864;BME280;15980;51.092;13.916;2023-04-24T01:12:03;97428.50;;;11.23;97.53
27864;BME280;15980;51.092;13.916;2023-04-24T01:22:10;97431.13;;;11.46;96.80
27864;BME280;15980;51.092;13.916;2023-04-24T01:32:10;97431.91;;;11.46;95.91
27864;BME280;15980;51.092;13.916;2023-04-24T01:42:12;97428.88;;;11.55;96.24
27864;BME280;15980;51.092;13.916;2023-04-24T01:52:12;97436.72;;;11.56;96.86
27864;BME280;15980;51.092;13.916;2023-04-24T02:02:13;97424.53;;;11.54;95.70
27864;BME280;15980;51.092;13.916;2023-04-24T02:12:14;97424.25;;;11.66;95.34
27864;BME280;15980;51.092;13.916;2023-04-24T02:22:15;97429.00;;;11.69;94.76
27864;BME280;15980;51.092;13.916;2023-04-24T02:32:15;97430.50;;;11.63;94.54
27864;BME280;15980;51.092;13.916;2023-04-24T02:42:15;97430.16;;;11.68;94.71
27864;BME280;15980;51.092;13.916;2023-04-24T02:52:15;97420.59;;;11.51;94.04
27864;BME280;15980;51.092;13.916;2023-04-24T03:02:16;97422.22;;;11.59;94.75
27864;BME280;15980;51.092;13.916;2023-04-24T03:12:16;97418.78;;;11.70;92.83
27864;BME280;15980;51.092;13.916;2023-04-24T03:22:16;97427.91;;;11.77;91.29
27864;BME280;15980;51.092;13.916;2023-04-24T03:32:17;97409.91;;;11.80;90.31
27864;BME280;15980;51.092;13.916;2023-04-24T03:42:17;97420.44;;;11.74;89.46
27864;BME280;15980;51.092;13.916;2023-04-24T03:52:18;97438.13;;;11.77;89.03
27864;BME280;15980;51.092;13.916;2023-04-24T04:02:18;97447.66;;;11.86;87.57
27864;BME280;15980;51.092;13.916;2023-04-24T04:12:18;97458.81;;;12.08;85.38
27864;BME280;15980;51.092;13.916;2023-04-24T04:22:19;97466.53;;;12.39;83.86
27864;BME280;15980;51.092;13.916;2023-04-24T04:32:19;97464.41;;;12.70;80.91
27864;BME280;15980;51.092;13.916;2023-04-24T04:42:19;97462.19;;;13.00;78.36
27864;BME280;15980;51.092;13.916;2023-04-24T04:52:19;97468.34;;;13.45;76.85
27864;BME280;15980;51.092;13.916;2023-04-24T05:02:20;97469.94;;;13.60;74.69
27864;BME280;15980;51.092;13.916;2023-04-24T05:12:20;97474.31;;;13.72;73.84
27864;BME280;15980;51.092;13.916;2023-04-24T05:22:20;97480.25;;;13.99;72.90
27864;BME280;15980;51.092;13.916;2023-04-24T05:32:21;97490.13;;;14.14;70.29
27864;BME280;15980;51.092;13.916;2023-04-24T05:42:21;97477.53;;;14.63;69.50
27864;BME280;15980;51.092;13.916;2023-04-24T05:52:21;97481.44;;;14.90;68.47
27864;BME280;15980;51.092;13.916;2023-04-24T06:02:22;97490.03;;;15.21;68.39
27864;BME280;15980;51.092;13.916;2023-04-24T06:12:22;97485.13;;;15.67;67.38
27864;BME280;15980;51.092;13.916;2023-04-24T06:22:22;97486.50;;;16.00;66.39
27864;BME280;15980;51.092;13.916;2023-04-24T06:32:23;97492.56;;;16.37;62.84
27864;BME280;15980;51.092;13.916;2023-04-24T06:42:24;97485.19;;;16.19;61.60
27864;BME280;15980;51.092;13.916;2023-04-24T06:52:24;97495.94;;;16.10;63.12
27864;BME280;15980;51.092;13.916;2023-04-24T07:02:25;97485.31;;;15.98;62.81
27864;BME280;15980;51.092;13.916;2023-04-24T07:12:25;97512.19;;;15.97;63.19
27864;BME280;15980;51.092;13.916;2023-04-24T07:22:25;97514.66;;;16.44;61.87
27864;BME280;15980;51.092;13.916;2023-04-24T07:32:26;97497.97;;;16.99;59.98
27864;BME280;15980;51.092;13.916;2023-04-24T07:42:26;97515.66;;;17.46;57.47
27864;BME280;15980;51.092;13.916;2023-04-24T07:52:27;97513.63;;;17.84;58.19
27864;BME280;15980;51.092;13.916;2023-04-24T08:02:28;97517.69;;;18.34;56.09
27864;BME280;15980;51.092;13.916;2023-04-24T08:12:29;97518.00;;;18.39;54.83
27864;BME280;15980;51.092;13.916;2023-04-24T08:22:29;97527.50;;;18.11;54.50
27864;BME280;15980;51.092;13.916;2023-04-24T08:32:29;97518.19;;;17.98;55.30
27864;BME280;15980;51.092;13.916;2023-04-24T08:42:30;97520.75;;;19.13;52.84
27864;BME280;15980;51.092;13.916;2023-04-24T08:52:35;97515.94;;;17.89;55.71
27864;BME280;15980;51.092;13.916;2023-04-24T09:02:35;97525.41;;;16.86;59.22
27864;BME280;15980;51.092;13.916;2023-04-24T09:12:35;97528.50;;;15.85;65.15
27864;BME280;15980;51.092;13.916;2023-04-24T09:22:36;97514.88;;;16.71;63.03
27864;BME280;15980;51.092;13.916;2023-04-24T09:32:36;97526.41;;;16.58;53.66
27864;BME280;15980;51.092;13.916;2023-04-24T09:42:37;97524.91;;;17.33;51.24
27864;BME280;15980;51.092;13.916;2023-04-24T09:52:42;97531.97;;;18.05;50.64
27864;BME280;15980;51.092;13.916;2023-04-24T10:02:43;97526.56;;;17.26;51.10
27864;BME280;15980;51.092;13.916;2023-04-24T10:12:44;97522.44;;;18.06;52.75
27864;BME280;15980;51.092;13.916;2023-04-24T10:22:48;97520.91;;;18.56;49.80
27864;BME280;15980;51.092;13.916;2023-04-24T10:32:48;97524.25;;;17.89;49.07
27864;BME280;15980;51.092;13.916;2023-04-24T10:42:51;97530.59;;;19.18;46.62
27864;BME280;15980;51.092;13.916;2023-04-24T10:52:52;97517.16;;;20.12;45.97
27864;BME280;15980;51.092;13.916;2023-04-24T11:02:53;97519.16;;;19.75;44.98
27864;BME280;15980;51.092;13.916;2023-04-24T11:12:53;97518.03;;;19.49;45.76
27864;BME280;15980;51.092;13.916;2023-04-24T11:22:54;97530.81;;;19.46;46.48
27864;BME280;15980;51.092;13.916;2023-04-24T11:33:02;97526.44;;;18.32;49.59
27864;BME280;15980;51.092;13.916;2023-04-24T11:43:03;97527.28;;;18.52;49.35
27864;BME280;15980;51.092;13.916;2023-04-24T11:53:04;97539.13;;;18.33;48.98
27864;BME280;15980;51.092;13.916;2023-04-24T12:03:06;97533.31;;;18.20;49.39
27864;BME280;15980;51.092;13.916;2023-04-24T12:13:09;97516.59;;;18.51;49.87
27864;BME280;15980;51.092;13.916;2023-04-24T12:23:09;97520.97;;;18.99;48.54
27864;BME280;15980;51.092;13.916;2023-04-24T12:33:10;97532.50;;;17.28;49.30
27864;BME280;15980;51.092;13.916;2023-04-24T12:43:18;97542.84;;;16.83;48.86
27864;BME280;15980;51.092;13.916;2023-04-24T12:53:19;97531.75;;;17.58;45.25
27864;BME280;15980;51.092;13.916;2023-04-24T13:03:19;97531.16;;;17.44;44.72
27864;BME280;15980;51.092;13.916;2023-04-24T13:13:19;97535.16;;;17.02;43.43
27864;BME280;15980;51.092;13.916;2023-04-24T13:23:20;97531.00;;;16.79;43.75
27864;BME280;15980;51.092;13.916;2023-04-24T13:33:20;97531.50;;;17.12;42.89
27864;BME280;15980;51.092;13.916;2023-04-24T13:43:20;97536.78;;;18.01;41.38
27864;BME280;15980;51.092;13.916;2023-04-24T13:53:21;97516.16;;;17.38;41.96
27864;BME280;15980;51.092;13.916;2023-04-24T14:03:21;97522.81;;;17.10;39.90
27864;BME280;15980;51.092;13.916;2023-04-24T14:13:21;97532.47;;;16.39;39.46
27864;BME280;15980;51.092;13.916;2023-04-24T14:23:22;97530.47;;;16.43;40.48
27864;BME280;15980;51.092;13.916;2023-04-24T14:33:22;97512.97;;;17.39;39.10
27864;BME280;15980;51.092;13.916;2023-04-24T14:43:22;97523.75;;;17.30;37.87
27864;BME280;15980;51.092;13.916;2023-04-24T14:53:22;97526.34;;;17.48;37.79
27864;BME280;15980;51.092;13.916;2023-04-24T15:03:23;97539.44;;;17.81;38.65
27864;BME280;15980;51.092;13.916;2023-04-24T15:13:23;97538.59;;;17.13;39.68
27864;BME280;15980;51.092;13.916;2023-04-24T15:23:23;97559.59;;;16.69;39.96
27864;BME280;15980;51.092;13.916;2023-04-24T15:33:24;97559.69;;;16.55;39.61
27864;BME280;15980;51.092;13.916;2023-04-24T15:43:24;97560.78;;;16.02;40.47
27864;BME280;15980;51.092;13.916;2023-04-24T15:53:25;97583.88;;;15.60;41.12
27864;BME280;15980;51.092;13.916;2023-04-24T16:03:25;97581.91;;;15.67;41.61
27864;BME280;15980;51.092;13.916;2023-04-24T16:13:25;97595.81;;;15.28;43.30
27864;BME280;15980;51.092;13.916;2023-04-24T16:23:26;97607.66;;;15.15;44.21
27864;BME280;15980;51.092;13.916;2023-04-24T16:33:26;97597.84;;;14.78;43.79
27864;BME280;15980;51.092;13.916;2023-04-24T16:43:26;97620.28;;;14.62;44.54
27864;BME280;15980;51.092;13.916;2023-04-24T16:53:27;97626.22;;;14.68;44.71
27864;BME280;15980;51.092;13.916;2023-04-24T17:03:27;97639.50;;;14.30;47.05
27864;BME280;15980;51.092;13.916;2023-04-24T17:13:27;97641.06;;;14.13;47.22
27864;BME280;15980;51.092;13.916;2023-04-24T17:23:28;97649.72;;;14.12;48.04
27864;BME280;15980;51.092;13.916;2023-04-24T17:33:29;97675.19;;;13.80;48.29
27864;BME280;15980;51.092;13.916;2023-04-24T17:43:29;97685.31;;;13.62;49.48
27864;BME280;15980;51.092;13.916;2023-04-24T17:53:30;97695.66;;;13.17;52.56
27864;BME280;15980;51.092;13.916;2023-04-24T18:03:30;97716.00;;;13.09;52.62
27864;BME280;15980;51.092;13.916;2023-04-24T18:13:30;97728.75;;;12.84;53.49
27864;BME280;15980;51.092;13.916;2023-04-24T18:23:31;97751.69;;;12.24;53.71
27864;BME280;15980;51.092;13.916;2023-04-24T18:33:31;97774.81;;;11.93;54.96
27864;BME280;15980;51.092;13.916;2023-04-24T18:43:31;97783.56;;;11.50;56.11
27864;BME280;15980;51.092;13.916;2023-04-24T18:53:32;97790.81;;;11.16;55.42
27864;BME280;15980;51.092;13.916;2023-04-24T19:03:32;97810.78;;;10.90;56.26
27864;BME280;15980;51.092;13.916;2023-04-24T19:13:32;97823.28;;;10.87;57.28
27864;BME280;15980;51.092;13.916;2023-04-24T19:23:33;97826.72;;;10.65;58.83
27864;BME280;15980;51.092;13.916;2023-04-24T19:33:33;97824.50;;;10.70;58.84
27864;BME280;15980;51.092;13.916;2023-04-24T19:43:33;97818.50;;;10.65;59.72
27864;BME280;15980;51.092;13.916;2023-04-24T19:53:34;97829.63;;;10.53;60.95
27864;BME280;15980;51.092;13.916;2023-04-24T20:03:34;97821.03;;;10.35;61.90
27864;BME280;15980;51.092;13.916;2023-04-24T20:13:34;97826.53;;;10.19;62.62
27864;BME280;15980;51.092;13.916;2023-04-24T20:23:35;97832.47;;;10.21;62.96
27864;BME280;15980;51.092;13.916;2023-04-24T20:33:35;97832.16;;;10.42;63.33
27864;BME280;15980;51.092;13.916;2023-04-24T20:43:35;97837.88;;;10.18;63.35
27864;BME280;15980;51.092;13.916;2023-04-24T20:53:36;97848.31;;;9.96;64.23
27864;BME280;15980;51.092;13.916;2023-04-24T21:03:36;97850.75;;;9.82;64.70
27864;BME280;15980;51.092;13.916;2023-04-24T21:13:36;97851.28;;;9.72;65.07
27864;BME280;15980;51.092;13.916;2023-04-24T21:23:36;97853.59;;;9.70;65.61
27864;BME280;15980;51.092;13.916;2023-04-24T21:33:37;97853.34;;;9.59;66.37
27864;BME280;15980;51.092;13.916;2023-04-24T21:43:37;97843.09;;;9.40;67.24
27864;BME280;15980;51.092;13.916;2023-04-24T21:53:38;97832.50;;;9.23;68.08
27864;BME280;15980;51.092;13.916;2023-04-24T22:03:38;97829.47;;;9.12;68.30
27864;BME280;15980;51.092;13.916;2023-04-24T22:13:38;97834.03;;;9.08;68.23
27864;BME280;15980;51.092;13.916;2023-04-24T22:23:39;97832.81;;;9.06;68.24
27864;BME280;15980;51.092;13.916;2023-04-24T22:33:39;97828.75;;;9.00;68.13
27864;BME280;15980;51.092;13.916;2023-04-24T22:43:39;97832.59;;;8.83;69.34
27864;BME280;15980;51.092;13.916;2023-04-24T22:53:40;97823.22;;;8.68;69.54
27864;BME280;15980;51.092;13.916;2023-04-24T23:03:40;97842.00;;;8.70;69.44
27864;BME280;15980;51.092;13.916;2023-04-24T23:13:40;97850.03;;;8.50;71.24
27864;BME280;15980;51.092;13.916;2023-04-24T23:23:41;97839.59;;;8.40;72.88
27864;BME280;15980;51.092;13.916;2023-04-24T23:33:41;97846.69;;;8.17;73.87
27864;BME280;15980;51.092;13.916;2023-04-24T23:43:41;97838.81;;;8.28;73.70
27864;BME280;15980;51.092;13.916;2023-04-24T23:53:41;97834.72;;;8.34;73.18
